createdAt,value
2023-03-17T00:02:17.859Z,5.11
2023-03-17T00:04:48.766Z,5.09
2023-03-17T00:07:19.782Z,5.08
2023-03-17T00:09:50.451Z,5.06
2023-03-17T00:12:21.491Z,5.05
2023-03-17T00:14:51.938Z,5.03
2023-03-17T00:17:22.420Z,5.02
2023-03-17T00:19:53.599Z,5.00
2023-03-17T00:22:24.119Z,4.98
2023-03-17T00:24:54.770Z,4.96
2023-03-17T00:27:26.486Z,4.94
2023-03-17T00:29:57.442Z,4.91
2023-03-17T00:32:27.908Z,4.88
2023-03-17T00:34:58.815Z,4.86
2023-03-17T00:37:29.458Z,4.85
2023-03-17T00:40:00.690Z,4.82
2023-03-17T00:42:31.089Z,4.78
2023-03-17T00:45:02.563Z,4.77
2023-03-17T00:47:33.840Z,4.75
2023-03-17T00:50:05.636Z,4.73
2023-03-17T00:52:36.212Z,4.71
2023-03-17T00:55:08.950Z,4.69
2023-03-17T00:57:40.505Z,4.67
2023-03-17T01:00:23.073Z,4.64
2023-03-17T01:02:55.421Z,4.62
2023-03-17T01:05:27.528Z,4.61
2023-03-17T01:07:58.935Z,4.60
2023-03-17T01:10:30.861Z,4.58
2023-03-17T01:13:02.055Z,4.56
2023-03-17T01:15:34.079Z,4.53
2023-03-17T01:18:05.361Z,4.52
2023-03-17T01:20:36.830Z,4.51
2023-03-17T01:23:08.262Z,4.51
2023-03-17T01:25:40.436Z,4.51
2023-03-17T01:28:14.383Z,4.50
2023-03-17T01:30:45.478Z,4.48
2023-03-17T01:33:16.203Z,4.47
2023-03-17T01:35:47.418Z,4.46
2023-03-17T01:38:18.318Z,4.47
2023-03-17T01:40:50.989Z,4.48
2023-03-17T01:43:24.690Z,4.48
2023-03-17T01:46:27.642Z,4.48
2023-03-17T01:49:29.448Z,4.45
2023-03-17T01:52:07.639Z,4.44
2023-03-17T01:54:43.064Z,4.43
2023-03-17T01:57:17.720Z,4.41
2023-03-17T01:59:52.907Z,4.38
2023-03-17T02:02:29.692Z,4.34
2023-03-17T02:05:01.619Z,4.30
2023-03-17T02:07:34.068Z,4.26
2023-03-17T02:10:06.649Z,4.21
2023-03-17T02:12:37.986Z,4.18
2023-03-17T02:15:09.903Z,4.16
2023-03-17T02:17:40.649Z,4.15
2023-03-17T02:20:34.681Z,4.13
2023-03-17T02:23:05.944Z,4.11
2023-03-17T02:25:38.652Z,4.09
2023-03-17T02:28:14.868Z,4.06
2023-03-17T02:30:45.962Z,4.04
2023-03-17T02:33:19.001Z,4.02
2023-03-17T02:35:49.646Z,4.01
2023-03-17T02:38:20.174Z,3.98
2023-03-17T02:40:50.902Z,3.96
2023-03-17T02:43:22.356Z,3.93
2023-03-17T02:45:52.910Z,3.89
2023-03-17T02:48:23.893Z,3.87
2023-03-17T02:50:54.350Z,3.83
2023-03-17T02:53:24.761Z,3.80
2023-03-17T02:55:55.315Z,3.77
2023-03-17T02:58:25.841Z,3.74
2023-03-17T03:00:56.600Z,3.71
2023-03-17T03:03:27.144Z,3.68
2023-03-17T03:05:59.204Z,3.67
2023-03-17T03:08:30.503Z,3.64
2023-03-17T03:11:02.626Z,3.63
2023-03-17T03:13:33.120Z,3.62
2023-03-17T03:16:04.630Z,3.60
2023-03-17T03:18:35.116Z,3.58
2023-03-17T03:21:06.547Z,3.57
2023-03-17T03:23:37.284Z,3.55
2023-03-17T03:26:08.105Z,3.53
2023-03-17T03:28:38.760Z,3.52
2023-03-17T03:31:09.509Z,3.50
2023-03-17T03:33:39.971Z,3.48
2023-03-17T03:36:12.020Z,3.46
2023-03-17T03:38:42.693Z,3.45
2023-03-17T03:41:13.164Z,3.44
2023-03-17T03:43:43.672Z,3.42
2023-03-17T03:46:14.212Z,3.42
2023-03-17T03:48:44.734Z,3.40
2023-03-17T03:51:15.504Z,3.38
2023-03-17T03:53:45.960Z,3.37
2023-03-17T03:56:16.640Z,3.37
2023-03-17T03:58:47.259Z,3.37
2023-03-17T04:01:18.220Z,3.37
2023-03-17T04:03:48.670Z,3.37
2023-03-17T04:06:19.134Z,3.36
2023-03-17T04:08:49.797Z,3.35
2023-03-17T04:11:20.723Z,3.34
2023-03-17T04:13:51.201Z,3.34
2023-03-17T04:16:21.720Z,3.32
2023-03-17T04:18:52.552Z,3.33
2023-03-17T04:21:23.101Z,3.34
2023-03-17T04:23:53.529Z,3.32
2023-03-17T04:26:24.288Z,3.29
2023-03-17T04:28:55.558Z,3.27
2023-03-17T04:31:26.337Z,3.25
2023-03-17T04:33:56.895Z,3.22
2023-03-17T04:36:28.062Z,3.20
2023-03-17T04:38:58.492Z,3.17
2023-03-17T04:41:29.429Z,3.13
2023-03-17T04:44:00.028Z,3.12
2023-03-17T04:46:30.903Z,3.10
2023-03-17T04:49:01.684Z,3.07
2023-03-17T04:51:32.297Z,3.05
2023-03-17T04:54:02.809Z,3.04
2023-03-17T04:56:33.689Z,3.02
2023-03-17T04:59:04.565Z,3.01
2023-03-17T05:01:35.050Z,2.99
2023-03-17T05:04:06.862Z,2.98
2023-03-17T05:06:38.303Z,2.97
2023-03-17T05:09:08.778Z,2.96
2023-03-17T05:11:41.331Z,2.94
2023-03-17T05:14:11.828Z,2.93
2023-03-17T05:16:42.338Z,2.91
2023-03-17T05:19:13.217Z,2.90
2023-03-17T05:21:43.762Z,2.89
2023-03-17T05:24:14.380Z,2.89
2023-03-17T05:26:45.511Z,2.88
2023-03-17T05:29:16.170Z,2.88
2023-03-17T05:36:01.645Z,2.86
2023-03-17T05:42:53.203Z,2.87
2023-03-17T05:45:23.711Z,2.87
2023-03-17T05:47:54.211Z,2.87
2023-03-17T05:50:25.115Z,2.88
2023-03-17T05:52:55.555Z,2.89
2023-03-17T05:55:26.875Z,2.90
2023-03-17T05:57:57.366Z,2.92
2023-03-17T06:00:29.398Z,2.94
2023-03-17T06:03:00.102Z,2.97
2023-03-17T06:05:30.939Z,3.00
2023-03-17T06:08:02.109Z,3.02
2023-03-17T06:10:33.113Z,3.05
2023-03-17T06:13:04.711Z,3.08
2023-03-17T06:15:37.028Z,3.11
2023-03-17T06:18:07.804Z,3.14
2023-03-17T06:20:38.338Z,3.17
2023-03-17T06:23:08.875Z,3.25
2023-03-17T06:25:39.362Z,3.34
2023-03-17T06:28:10.327Z,3.40
2023-03-17T06:30:41.034Z,3.44
2023-03-17T06:33:11.869Z,3.48
2023-03-17T06:39:56.708Z,3.58
2023-03-17T06:42:27.211Z,3.62
2023-03-17T06:44:58.007Z,3.64
2023-03-17T06:47:28.895Z,3.67
2023-03-17T06:49:59.431Z,3.72
2023-03-17T06:52:29.848Z,3.75
2023-03-17T06:55:00.526Z,3.79
2023-03-17T06:57:30.954Z,3.83
2023-03-17T07:00:01.556Z,3.87
2023-03-17T07:02:32.471Z,3.92
2023-03-17T07:05:03.832Z,3.95
2023-03-17T07:07:35.617Z,3.99
2023-03-17T07:14:25.814Z,4.08
2023-03-17T07:16:56.222Z,4.11
2023-03-17T07:19:27.283Z,4.15
2023-03-17T07:24:54.784Z,4.21
2023-03-17T07:27:26.600Z,4.25
2023-03-17T07:29:57.154Z,4.29
2023-03-17T07:32:28.210Z,4.32
2023-03-17T07:34:59.546Z,4.34
2023-03-17T07:37:30.027Z,4.37
2023-03-17T07:40:00.702Z,4.40
2023-03-17T07:42:31.424Z,4.43
2023-03-17T07:45:02.019Z,4.48
2023-03-17T07:47:32.692Z,4.52
2023-03-17T07:50:03.186Z,4.57
2023-03-17T07:52:34.364Z,4.64
2023-03-17T07:55:08.448Z,4.69
2023-03-17T07:57:39.200Z,4.74
2023-03-17T08:00:13.842Z,4.79
2023-03-17T08:02:44.530Z,4.84
2023-03-17T08:05:15.351Z,4.88
2023-03-17T08:07:46.045Z,4.92
2023-03-17T08:10:17.204Z,4.97
2023-03-17T08:12:51.935Z,5.02
2023-03-17T08:15:22.838Z,5.09
2023-03-17T08:17:53.831Z,5.13
2023-03-17T08:20:24.283Z,5.20
2023-03-17T08:22:54.845Z,5.26
2023-03-17T08:25:25.416Z,5.34
2023-03-17T08:27:56.258Z,5.42
2023-03-17T08:30:27.488Z,5.52
2023-03-17T08:32:58.265Z,5.62
2023-03-17T08:35:29.133Z,5.71
2023-03-17T08:38:00.116Z,5.80
2023-03-17T08:40:31.492Z,5.89
2023-03-17T08:43:02.584Z,5.96
2023-03-17T08:45:33.231Z,6.05
2023-03-17T08:48:04.306Z,6.14
2023-03-17T08:50:35.515Z,6.23
2023-03-17T08:53:06.003Z,6.32
2023-03-17T08:55:36.624Z,6.39
2023-03-17T08:58:07.177Z,6.47
2023-03-17T09:00:37.736Z,6.53
2023-03-17T09:03:08.773Z,6.58
2023-03-17T09:05:39.700Z,6.63
2023-03-17T09:08:10.426Z,6.70
2023-03-17T09:10:44.209Z,6.77
2023-03-17T09:13:14.984Z,6.85
2023-03-17T09:15:46.080Z,6.91
2023-03-17T09:18:16.765Z,6.99
2023-03-17T09:20:47.610Z,7.07
2023-03-17T09:23:18.144Z,7.12
2023-03-17T09:25:48.890Z,7.18
2023-03-17T09:28:19.869Z,7.25
2023-03-17T09:30:50.634Z,7.33
2023-03-17T09:33:21.784Z,7.41
2023-03-17T09:35:54.404Z,7.51
2023-03-17T09:38:25.697Z,7.62
2023-03-17T09:41:00.877Z,7.73
2023-03-17T09:43:44.003Z,7.86
2023-03-17T09:46:36.489Z,8.00
2023-03-17T09:49:10.848Z,8.16
2023-03-17T09:51:41.761Z,8.31
2023-03-17T09:54:18.417Z,8.46
2023-03-17T09:56:56.544Z,8.61
2023-03-17T09:59:34.390Z,8.75
2023-03-17T10:02:15.315Z,8.92
2023-03-17T10:04:47.974Z,9.08
2023-03-17T10:07:24.683Z,9.21
2023-03-17T10:10:02.955Z,9.34
2023-03-17T10:12:45.619Z,9.44
2023-03-17T10:15:21.671Z,9.50
2023-03-17T10:17:53.457Z,9.55
2023-03-17T10:20:29.701Z,9.58
2023-03-17T10:23:03.494Z,9.62
2023-03-17T10:25:36.646Z,9.64
2023-03-17T10:28:16.168Z,9.69
2023-03-17T10:30:46.652Z,9.78
2023-03-17T10:42:00.392Z,10.45
2023-03-17T10:44:44.582Z,10.66
2023-03-17T10:47:32.725Z,10.86
2023-03-17T10:50:20.355Z,11.09
2023-03-17T10:52:57.901Z,11.31
2023-03-17T10:55:32.844Z,11.51
2023-03-17T10:58:08.093Z,11.71
2023-03-17T11:00:39.648Z,11.90
2023-03-17T11:03:18.753Z,12.11
2023-03-17T11:05:58.707Z,12.35
2023-03-17T11:08:34.092Z,12.58
2023-03-17T11:11:10.011Z,12.73
2023-03-17T11:13:41.134Z,12.85
2023-03-17T11:16:23.279Z,12.97
2023-03-17T11:18:58.546Z,13.07
2023-03-17T11:21:31.705Z,13.17
2023-03-17T11:24:09.476Z,13.29
2023-03-17T11:26:52.281Z,13.38
2023-03-17T11:29:36.048Z,13.48
2023-03-17T11:32:20.950Z,13.62
2023-03-17T11:35:14.548Z,13.74
2023-03-17T11:38:01.069Z,13.88
2023-03-17T11:45:19.148Z,14.16
2023-03-17T11:48:02.781Z,14.28
2023-03-17T11:50:40.865Z,14.40
2023-03-17T11:53:34.549Z,14.51
2023-03-17T11:56:11.848Z,14.65
2023-03-17T11:58:45.118Z,14.76
2023-03-17T12:01:21.605Z,14.81
2023-03-17T12:04:00.229Z,14.88
2023-03-17T12:06:35.061Z,14.95
2023-03-17T12:09:13.167Z,15.04
2023-03-17T12:11:46.640Z,15.08
2023-03-17T12:14:28.701Z,15.13
2023-03-17T12:17:06.176Z,15.18
2023-03-17T12:19:43.665Z,15.26
2023-03-17T12:22:26.668Z,15.38
2023-03-17T12:25:11.221Z,15.50
2023-03-17T12:27:48.414Z,15.61
2023-03-17T12:30:29.321Z,15.68
2023-03-17T12:33:08.051Z,15.76
2023-03-17T12:35:39.817Z,15.87
2023-03-17T12:38:18.935Z,15.96
2023-03-17T12:41:10.319Z,16.05
2023-03-17T12:43:48.002Z,16.13
2023-03-17T12:46:37.821Z,16.21
2023-03-17T12:49:28.243Z,16.30
2023-03-17T12:52:08.538Z,16.35
2023-03-17T12:54:40.991Z,16.40
2023-03-17T12:57:18.997Z,16.45
2023-03-17T12:59:49.692Z,16.52
2023-03-17T13:02:33.501Z,16.58
2023-03-17T13:05:10.125Z,16.69
2023-03-17T13:07:50.233Z,16.77
2023-03-17T13:10:40.028Z,16.85
2023-03-17T13:13:15.334Z,16.96
2023-03-17T13:15:58.847Z,17.00
2023-03-17T13:19:07.524Z,17.03
2023-03-17T13:21:39.036Z,17.07
2023-03-17T13:24:42.605Z,17.14
2023-03-17T13:27:15.982Z,17.24
2023-03-17T13:29:50.242Z,17.30
2023-03-17T13:32:40.795Z,17.33
2023-03-17T13:35:20.877Z,17.35
2023-03-17T13:38:26.285Z,17.39
2023-03-17T13:41:17.400Z,17.41
2023-03-17T13:44:04.019Z,17.42
2023-03-17T13:46:44.060Z,17.44
2023-03-17T13:49:24.515Z,17.50
2023-03-17T13:52:00.311Z,17.51
2023-03-17T13:54:36.471Z,17.52
2023-03-17T13:57:28.658Z,17.56
2023-03-17T14:00:05.688Z,17.60
2023-03-17T14:02:40.839Z,17.58
2023-03-17T14:05:23.312Z,17.60
2023-03-17T14:07:58.381Z,17.62
2023-03-17T14:10:31.626Z,17.63
2023-03-17T14:13:08.942Z,17.66
2023-03-17T14:15:48.176Z,17.70
2023-03-17T14:18:22.262Z,17.79
2023-03-17T14:20:58.369Z,17.88
2023-03-17T14:23:30.140Z,17.98
2023-03-17T14:26:02.841Z,18.08
2023-03-17T14:28:36.010Z,18.18
2023-03-17T14:31:08.457Z,18.25
2023-03-17T14:33:42.231Z,18.30
2023-03-17T14:36:14.905Z,18.38
2023-03-17T14:38:51.658Z,18.49
2023-03-17T14:41:24.186Z,18.55
2023-03-17T14:43:59.711Z,18.55
2023-03-17T14:46:34.264Z,18.50
2023-03-17T14:49:15.516Z,18.43
2023-03-17T14:51:46.559Z,18.36
2023-03-17T14:58:46.167Z,18.07
2023-03-17T15:01:19.407Z,17.95
2023-03-17T15:03:58.040Z,17.84
2023-03-17T15:06:30.640Z,17.81
2023-03-17T15:09:04.512Z,17.80
2023-03-17T15:11:42.966Z,17.75
2023-03-17T15:14:21.419Z,17.67
2023-03-17T15:16:55.871Z,17.52
2023-03-17T15:19:29.547Z,17.33
2023-03-17T15:22:00.647Z,17.18
2023-03-17T15:24:41.463Z,17.07
2023-03-17T15:31:29.503Z,16.83
2023-03-17T15:34:00.398Z,16.72
2023-03-17T15:36:33.160Z,16.63
2023-03-17T15:39:05.171Z,16.54
2023-03-17T15:41:34.088Z,16.45
2023-03-17T15:44:05.333Z,16.37
2023-03-17T15:46:36.744Z,16.31
2023-03-17T15:49:12.156Z,16.23
2023-03-17T15:51:43.005Z,16.14
2023-03-17T15:54:17.742Z,16.06
2023-03-17T15:56:48.366Z,15.94
2023-03-17T15:59:18.894Z,15.83
2023-03-17T16:01:49.414Z,15.73
2023-03-17T16:04:19.902Z,15.62
2023-03-17T16:06:50.685Z,15.51
2023-03-17T16:09:21.178Z,15.38
2023-03-17T16:11:52.254Z,15.26
2023-03-17T16:14:22.784Z,15.16
2023-03-17T16:16:54.036Z,15.04
2023-03-17T16:19:25.438Z,14.92
2023-03-17T16:21:56.349Z,14.80
2023-03-17T16:24:28.231Z,14.68
2023-03-17T16:26:58.716Z,14.56
2023-03-17T16:33:43.329Z,14.25
2023-03-17T16:36:17.434Z,14.14
2023-03-17T16:38:49.067Z,14.04
2023-03-17T16:41:23.480Z,13.94
2023-03-17T16:44:00.703Z,13.84
2023-03-17T16:50:44.758Z,13.60
2023-03-17T16:53:15.252Z,13.50
2023-03-17T16:55:46.731Z,13.41
2023-03-17T16:58:20.614Z,13.30
2023-03-17T17:00:53.422Z,13.18
2023-03-17T17:03:23.873Z,13.08
2023-03-17T17:10:19.197Z,12.82
2023-03-17T17:12:50.224Z,12.74
2023-03-17T17:15:22.658Z,12.66
2023-03-17T17:17:55.793Z,12.58
2023-03-17T17:20:30.791Z,12.50
2023-03-17T17:23:03.030Z,12.41
2023-03-17T17:25:32.789Z,12.35
2023-03-17T17:32:24.513Z,12.17
2023-03-17T17:34:54.970Z,12.11
2023-03-17T17:37:25.522Z,12.04
2023-03-17T17:39:56.046Z,11.98
2023-03-17T17:42:26.593Z,11.90
2023-03-17T17:44:57.123Z,11.83
2023-03-17T17:47:32.120Z,11.77
2023-03-17T17:50:03.010Z,11.70
2023-03-17T17:52:33.871Z,11.63
2023-03-17T17:55:05.165Z,11.56
2023-03-17T17:57:36.231Z,11.50
2023-03-17T18:00:09.007Z,11.44
2023-03-17T18:02:39.668Z,11.38
2023-03-17T18:05:12.391Z,11.34
2023-03-17T18:07:43.373Z,11.29
2023-03-17T18:10:19.416Z,11.24
2023-03-17T18:12:49.852Z,11.19
2023-03-17T18:15:21.945Z,11.15
2023-03-17T18:17:52.622Z,11.09
2023-03-17T18:20:24.265Z,11.05
2023-03-17T18:22:55.169Z,10.99
2023-03-17T18:25:27.308Z,10.94
2023-03-17T18:27:56.420Z,10.91
2023-03-17T18:30:30.279Z,10.86
2023-03-17T18:33:05.213Z,10.83
2023-03-17T18:35:36.621Z,10.80
2023-03-17T18:38:08.554Z,10.76
2023-03-17T18:40:39.614Z,10.74
2023-03-17T18:43:10.099Z,10.70
2023-03-17T18:45:40.839Z,10.69
2023-03-17T18:48:11.355Z,10.65
2023-03-17T18:50:41.876Z,10.62
2023-03-17T18:53:12.346Z,10.60
2023-03-17T18:55:43.184Z,10.57
2023-03-17T18:58:13.575Z,10.53
2023-03-17T19:00:44.467Z,10.50
2023-03-17T19:03:15.218Z,10.48
2023-03-17T19:05:45.965Z,10.46
2023-03-17T19:08:17.997Z,10.43
2023-03-17T19:10:46.986Z,10.40
2023-03-17T19:13:17.989Z,10.35
2023-03-17T19:15:48.518Z,10.33
2023-03-17T19:18:19.079Z,10.30
2023-03-17T19:20:49.554Z,10.26
2023-03-17T19:23:20.162Z,10.24
2023-03-17T19:25:51.267Z,10.22
2023-03-17T19:28:21.836Z,10.19
2023-03-17T19:30:52.450Z,10.17
2023-03-17T19:33:23.183Z,10.14
2023-03-17T19:35:57.276Z,10.11
2023-03-17T19:38:28.543Z,10.08
2023-03-17T19:40:58.992Z,10.05
2023-03-17T19:43:40.336Z,10.03
2023-03-17T19:46:12.550Z,10.01
2023-03-17T19:48:43.257Z,9.97
2023-03-17T19:51:14.704Z,9.94
2023-03-17T19:53:45.146Z,9.90
2023-03-17T19:56:16.079Z,9.85
2023-03-17T19:58:46.717Z,9.81
2023-03-17T20:01:18.067Z,9.77
2023-03-17T20:03:48.713Z,9.73
2023-03-17T20:06:19.627Z,9.69
2023-03-17T20:08:50.689Z,9.66
2023-03-17T20:11:21.137Z,9.61
2023-03-17T20:13:51.674Z,9.58
2023-03-17T20:16:22.195Z,9.53
2023-03-17T20:18:53.012Z,9.49
2023-03-17T20:21:23.534Z,9.44
2023-03-17T20:23:54.185Z,9.39
2023-03-17T20:26:24.705Z,9.36
2023-03-17T20:28:55.729Z,9.31
2023-03-17T20:31:26.260Z,9.28
2023-03-17T20:33:57.365Z,9.28
2023-03-17T20:40:48.236Z,9.23
2023-03-17T20:47:31.893Z,9.09
2023-03-17T20:54:29.981Z,8.94
2023-03-17T20:57:01.041Z,8.90
2023-03-17T20:59:31.576Z,8.83
2023-03-17T21:02:03.517Z,8.78
2023-03-17T21:04:34.050Z,8.74
2023-03-17T21:07:04.710Z,8.70
2023-03-17T21:09:35.412Z,8.66
2023-03-17T21:12:06.165Z,8.63
2023-03-17T21:14:36.649Z,8.60
2023-03-17T21:17:07.839Z,8.56
2023-03-17T21:19:38.806Z,8.53
2023-03-17T21:22:09.615Z,8.50
2023-03-17T21:24:41.011Z,8.47
2023-03-17T21:27:12.948Z,8.43
2023-03-17T21:29:43.394Z,8.40
2023-03-17T21:32:14.093Z,8.37
2023-03-17T21:34:44.937Z,8.33
2023-03-17T21:37:16.060Z,8.30
2023-03-17T21:39:46.795Z,8.27
2023-03-17T21:42:17.262Z,8.25
2023-03-17T21:44:48.485Z,8.23
2023-03-17T21:47:19.157Z,8.20
2023-03-17T21:49:49.768Z,8.17
2023-03-17T21:52:20.890Z,8.15
2023-03-17T21:54:51.743Z,8.13
2023-03-17T21:57:22.883Z,8.10
2023-03-17T21:59:53.311Z,8.08
2023-03-17T22:06:37.582Z,8.02
2023-03-17T22:09:10.899Z,8.00
2023-03-17T22:11:41.723Z,7.97
2023-03-17T22:14:19.792Z,7.95
2023-03-17T22:16:51.289Z,7.92
2023-03-17T22:19:22.519Z,7.90
2023-03-17T22:21:53.156Z,7.89
2023-03-17T22:24:25.427Z,7.88
2023-03-17T22:26:56.260Z,7.85
2023-03-17T22:29:27.386Z,7.82
2023-03-17T22:31:57.830Z,7.80
2023-03-17T22:34:28.817Z,7.77
2023-03-17T22:36:59.375Z,7.76
2023-03-17T22:39:30.206Z,7.74
2023-03-17T22:42:01.069Z,7.72
2023-03-17T22:44:31.520Z,7.71
2023-03-17T22:47:02.019Z,7.70
2023-03-17T22:49:32.473Z,7.69
2023-03-17T22:52:02.893Z,7.67
2023-03-17T22:54:33.351Z,7.66
2023-03-17T22:57:05.643Z,7.64
2023-03-17T22:59:36.333Z,7.62
2023-03-17T23:02:08.520Z,7.60
2023-03-17T23:04:38.150Z,7.58
2023-03-17T23:07:09.741Z,7.55
2023-03-17T23:09:41.518Z,7.55
2023-03-17T23:12:13.114Z,7.51
2023-03-17T23:14:43.762Z,7.49
2023-03-17T23:17:14.383Z,7.45
2023-03-17T23:19:44.804Z,7.39
2023-03-17T23:22:16.018Z,7.34
2023-03-17T23:24:47.366Z,7.31
2023-03-17T23:27:17.866Z,7.27
2023-03-17T23:29:48.254Z,7.25
2023-03-17T23:32:18.770Z,7.23
2023-03-17T23:34:49.237Z,7.21
2023-03-17T23:37:19.740Z,7.20
2023-03-17T23:39:50.172Z,7.18
2023-03-17T23:42:21.448Z,7.15
2023-03-17T23:44:52.039Z,7.13
2023-03-17T23:47:23.049Z,7.11
2023-03-17T23:49:54.088Z,7.08
2023-03-17T23:52:24.616Z,7.07
2023-03-17T23:54:55.159Z,7.06
2023-03-17T23:57:26.074Z,7.04
2023-03-17T23:59:57.159Z,7.04
